Time;durP1;ratioP1;P1;durP2;ratioP2;P2;SDS_P1;SDS_P2;PMS_P1;PMS_P2;Temp;Humidity;BMP_temperature;BMP_pressure;BME280_temperature;BME280_humidity;BME280_pressure;Samples;Min_cycle;Max_cycle;Signal;HPM_P1;HPM_P2
2023/03/12 00:02:02;;;;;;;3.30;1.80;;;;;;;-144.47;85.16;53158.00;5032276;28;20499;-70
2023/03/12 00:04:27;;;;;;;6.25;2.38;;;;;;;-144.47;85.49;53154.03;5032549;28;20079;-70
2023/03/12 00:06:53;;;;;;;4.55;2.20;;;;;;;-144.47;86.56;53185.81;5031208;28;20022;-72
2023/03/12 00:09:18;;;;;;;5.43;2.22;;;;;;;-144.47;86.72;53181.84;5034108;28;20152;-69
2023/03/12 00:11:43;;;;;;;15.15;4.00;;;;;;;-144.47;87.17;53160.00;5030282;28;20040;-71
2023/03/12 00:14:09;;;;;;;7.10;2.40;;;;;;;-144.47;87.18;53158.00;5029512;28;20092;-69
2023/03/12 00:16:34;;;;;;;5.93;2.60;;;;;;;-144.47;87.68;53181.84;5028174;28;20519;-71
2023/03/12 00:19:00;;;;;;;6.13;2.47;;;;;;;-144.47;87.67;53163.97;5028741;28;20029;-70
2023/03/12 00:21:25;;;;;;;7.60;3.00;;;;;;;-144.47;87.32;53156.00;5026215;28;20025;-70
2023/03/12 00:23:51;;;;;;;10.35;2.25;;;;;;;-144.47;87.18;53165.94;5029289;28;20047;-71
2023/03/12 00:26:18;;;;;;;4.43;2.25;;;;;;;-144.47;87.42;53161.97;5028081;28;20041;-69
2023/03/12 00:28:43;;;;;;;5.05;1.98;;;;;;;-144.47;87.54;53173.88;5028728;28;20033;-71
2023/03/12 00:31:31;;;;;;;4.43;2.20;;;;;;;-144.47;87.48;53158.00;5027869;28;20041;-69
2023/03/12 00:33:57;;;;;;;11.63;2.58;;;;;;;-144.47;87.75;53161.97;5033911;28;20051;-70
2023/03/12 00:36:25;;;;;;;8.63;2.63;;;;;;;-144.47;87.57;53193.75;5034321;28;20037;-70
2023/03/12 00:38:51;;;;;;;13.80;2.57;;;;;;;-144.47;87.19;53161.97;5010757;28;20582;-68
2023/03/12 00:41:18;;;;;;;6.25;1.77;;;;;;;-144.47;87.59;53160.00;5028534;28;20105;-70
2023/03/12 00:43:48;;;;;;;6.25;2.10;;;;;;;-144.47;87.90;53152.03;5028755;28;20044;-69
2023/03/12 00:46:13;;;;;;;15.80;3.35;;;;;;;-144.47;88.31;53177.88;5028831;28;20028;-67
2023/03/12 00:48:39;;;;;;;7.20;2.42;;;;;;;-144.47;88.78;53146.09;5028994;28;20117;-69
2023/03/12 00:51:05;;;;;;;5.68;2.78;;;;;;;-144.47;88.77;53158.00;5028229;28;20051;-68
2023/03/12 00:53:30;;;;;;;7.47;3.00;;;;;;;-144.47;88.79;53169.91;5027072;28;20029;-68
2023/03/12 00:55:56;;;;;;;5.20;2.15;;;;;;;-144.47;88.72;53173.88;5032741;28;20029;-68
2023/03/12 00:58:21;;;;;;;9.07;2.33;;;;;;;-144.47;89.06;53150.06;5027171;28;20119;-67
2023/03/12 01:00:46;;;;;;;4.47;2.13;;;;;;;-144.47;89.16;53183.81;5027375;28;20041;-71
2023/03/12 01:03:12;;;;;;;5.10;1.80;;;;;;;-144.47;89.47;53169.91;5025490;28;20032;-68
2023/03/12 01:05:39;;;;;;;7.30;2.88;;;;;;;-144.47;89.73;53169.91;5027291;28;20033;-69
2023/03/12 01:08:06;;;;;;;6.80;2.60;;;;;;;-144.47;89.78;53158.00;5031338;28;20040;-69
2023/03/12 01:10:31;;;;;;;10.63;2.40;;;;;;;-144.47;90.00;53189.78;5029198;28;20056;-70
2023/03/12 01:12:58;;;;;;;8.10;2.60;;;;;;;-144.47;89.68;53183.81;5028142;28;20108;-69
2023/03/12 01:15:24;;;;;;;6.25;2.25;;;;;;;-144.47;89.68;53183.81;5028439;28;20506;-69
2023/03/12 01:17:50;;;;;;;5.35;2.83;;;;;;;-144.47;89.65;53173.88;5027754;28;20029;-67
2023/03/12 01:20:15;;;;;;;5.22;2.58;;;;;;;-144.47;90.16;53177.88;5027732;28;20025;-67
2023/03/12 01:22:42;;;;;;;3.60;2.03;;;;;;;-144.47;90.28;53187.78;5027983;28;20393;-69
2023/03/12 01:25:11;;;;;;;9.88;2.22;;;;;;;-144.47;90.52;53193.75;5027902;28;20097;-69
2023/03/12 01:27:37;;;;;;;4.00;1.95;;;;;;;-144.47;91.00;53177.88;5027553;28;20063;-69
2023/03/12 01:30:04;;;;;;;6.72;3.17;;;;;;;-144.47;91.45;53187.78;5027671;28;20566;-69
2023/03/12 01:32:29;;;;;;;7.75;2.58;;;;;;;-144.47;91.44;53171.91;5027590;28;20108;-67
2023/03/12 01:34:57;;;;;;;7.60;2.28;;;;;;;-144.47;91.65;53195.75;5035301;28;20164;-66
2023/03/12 01:37:23;;;;;;;9.60;2.00;;;;;;;-144.47;91.73;53201.69;5026342;28;20182;-69
2023/03/12 01:39:48;;;;;;;6.93;2.10;;;;;;;-144.47;91.57;53185.81;5028832;28;20398;-69
2023/03/12 01:42:14;;;;;;;3.20;1.58;;;;;;;-144.47;91.52;53197.72;5029296;28;20093;-69
2023/03/12 01:44:55;;;;;;;9.15;2.38;;;;;;;-144.47;91.72;53185.81;5027862;28;20030;-68
2023/03/12 01:47:21;;;;;;;6.25;2.03;;;;;;;-144.47;91.96;53187.78;5027375;28;20029;-69
2023/03/12 01:49:48;;;;;;;9.40;2.83;;;;;;;-144.47;91.69;53183.81;5026791;28;20095;-69
2023/03/12 01:52:29;;;;;;;8.85;2.60;;;;;;;-144.47;91.76;53171.91;5021676;28;20060;-68
2023/03/12 01:55:01;;;;;;;5.30;2.83;;;;;;;-144.47;91.63;53215.59;5026403;28;20026;-67
2023/03/12 01:57:30;;;;;;;9.07;3.15;;;;;;;-144.47;91.85;53197.72;5025641;28;20043;-68
2023/03/12 01:59:58;;;;;;;10.65;2.72;;;;;;;-144.47;91.79;53193.75;5031951;28;20520;-67
2023/03/12 02:02:27;;;;;;;16.20;2.38;;;;;;;-144.47;92.07;53199.72;5038551;28;20104;-66
2023/03/12 02:05:28;;;;;;;10.48;2.33;;;;;;;-144.47;91.96;53179.84;5034239;28;20067;-69
2023/03/12 02:07:54;;;;;;;6.30;2.63;;;;;;;-144.47;91.97;53189.78;5040381;28;20038;-68
2023/03/12 02:10:21;;;;;;;7.07;2.40;;;;;;;-144.47;92.01;53191.78;5035468;28;20025;-70
2023/03/12 02:12:47;;;;;;;7.85;2.10;;;;;;;-144.47;91.75;53185.81;5031844;28;20029;-70
2023/03/12 02:15:12;;;;;;;7.78;2.90;;;;;;;-144.47;91.73;53181.84;5031720;28;20099;-68
2023/03/12 02:17:39;;;;;;;10.32;3.15;;;;;;;-144.47;91.39;53179.84;5031274;28;20033;-70
2023/03/12 02:20:24;;;;;;;3.22;1.45;;;;;;;-144.47;91.63;53191.78;5031181;28;20025;-69
2023/03/12 02:23:31;;;;;;;5.10;2.25;;;;;;;-144.47;91.62;53167.94;5030745;28;20127;-69
2023/03/12 02:25:57;;;;;;;10.02;2.30;;;;;;;-144.47;91.42;53158.00;4972482;28;20045;-70
2023/03/12 02:28:26;;;;;;;10.10;2.17;;;;;;;-144.47;91.64;53195.75;5028186;28;20060;-68
2023/03/12 02:30:58;;;;;;;2.65;1.60;;;;;;;-144.47;91.81;53183.81;5031860;28;20036;-67
2023/03/12 02:33:24;;;;;;;7.25;2.50;;;;;;;-144.47;91.76;53211.63;5029855;28;20119;-67
2023/03/12 02:35:51;;;;;;;4.15;1.85;;;;;;;-144.47;92.17;53193.75;5033746;28;20133;-66
2023/03/12 02:38:37;;;;;;;9.27;2.25;;;;;;;-144.47;92.19;53183.81;5030693;28;20140;-69
2023/03/12 02:41:11;;;;;;;6.47;2.08;;;;;;;-144.47;91.85;53185.81;5031195;28;20033;-67
2023/03/12 02:43:37;;;;;;;5.70;2.67;;;;;;;-144.47;91.97;53183.81;5031454;28;20037;-68
2023/03/12 02:46:03;;;;;;;11.85;2.55;;;;;;;-144.47;91.87;53185.81;5031180;28;20033;-71
2023/03/12 02:48:28;;;;;;;5.22;2.42;;;;;;;-144.47;92.29;53217.59;5032276;28;20105;-70
2023/03/12 02:50:53;;;;;;;4.40;1.98;;;;;;;-144.47;92.30;53213.63;5032532;28;20072;-67
2023/03/12 02:53:19;;;;;;;2.58;1.60;;;;;;;-144.47;92.72;53189.78;5033245;28;20364;-70
2023/03/12 02:55:44;;;;;;;4.80;2.13;;;;;;;-144.47;92.79;53185.81;5037076;28;20557;-67
2023/03/12 02:58:09;;;;;;;3.58;1.88;;;;;;;-144.47;92.63;53160.00;5033844;28;20029;-70
2023/03/12 03:00:36;;;;;;;4.00;1.63;;;;;;;-144.47;92.56;53183.81;5018949;28;20026;-68
2023/03/12 03:03:02;;;;;;;6.93;2.70;;;;;;;-144.47;92.81;53179.84;5030020;28;20026;-70
2023/03/12 03:05:27;;;;;;;5.30;2.88;;;;;;;-144.47;92.86;53193.75;5030200;28;20099;-69
2023/03/12 03:07:53;;;;;;;5.30;2.17;;;;;;;-144.47;93.68;53195.75;5032481;28;20498;-69
2023/03/12 03:10:18;;;;;;;5.40;2.55;;;;;;;-144.47;93.84;53197.72;5032450;28;20407;-70
2023/03/12 03:12:43;;;;;;;4.20;1.70;;;;;;;-144.47;93.71;53205.66;5032583;28;20025;-67
2023/03/12 03:15:10;;;;;;;4.63;1.80;;;;;;;-144.47;93.72;53207.66;5032262;28;20030;-70
2023/03/12 03:17:35;;;;;;;8.20;1.95;;;;;;;-144.47;93.69;53185.81;5029892;28;20603;-67
2023/03/12 03:20:01;;;;;;;5.32;2.08;;;;;;;-144.47;93.80;53189.78;5031189;28;20108;-71
2023/03/12 03:22:26;;;;;;;3.60;1.63;;;;;;;-144.47;93.97;53189.78;5031125;28;20660;-69
2023/03/12 03:24:53;;;;;;;4.45;1.80;;;;;;;-144.47;94.73;53219.56;5031318;28;20030;-70
2023/03/12 03:27:18;;;;;;;9.65;2.10;;;;;;;-144.47;95.01;53193.75;5032508;28;20128;-70
2023/03/12 03:29:45;;;;;;;9.98;3.85;;;;;;;-144.47;95.08;53217.59;5030436;28;20036;-69
2023/03/12 03:32:11;;;;;;;6.30;2.58;;;;;;;-144.47;95.10;53209.66;5028385;28;20025;-69
2023/03/12 03:34:37;;;;;;;6.40;2.15;;;;;;;-144.47;95.25;53229.50;5037604;28;20163;-70
2023/03/12 03:37:03;;;;;;;5.72;1.95;;;;;;;-144.47;95.37;53211.63;5035537;28;20052;-68
2023/03/12 03:39:28;;;;;;;6.82;1.77;;;;;;;-144.47;95.50;53231.50;5030085;28;20535;-71
2023/03/12 03:41:54;;;;;;;5.18;1.70;;;;;;;-144.47;95.17;53205.66;5029751;28;20033;-69
2023/03/12 03:44:21;;;;;;;8.70;1.98;;;;;;;-144.47;95.23;53213.63;5030273;28;20025;-71
2023/03/12 03:46:47;;;;;;;5.13;2.65;;;;;;;-144.47;95.42;53225.53;5029851;28;20188;-69
2023/03/12 03:49:14;;;;;;;4.47;1.30;;;;;;;-144.47;95.41;53217.59;5030002;28;20050;-66
2023/03/12 03:51:41;;;;;;;5.00;2.50;;;;;;;-144.47;95.47;53193.75;5023045;28;20221;-70
2023/03/12 03:54:07;;;;;;;4.38;1.83;;;;;;;-144.47;95.56;53207.66;5030834;28;20021;-67
2023/03/12 03:56:33;;;;;;;3.97;1.67;;;;;;;-144.47;95.66;53213.63;5031332;28;20033;-69
2023/03/12 03:59:00;;;;;;;7.32;1.65;;;;;;;-144.47;95.47;53205.66;5031442;28;20044;-69
2023/03/12 04:01:26;;;;;;;4.30;1.88;;;;;;;-144.47;95.77;53237.44;5030045;28;20024;-67
2023/03/12 04:03:51;;;;;;;3.92;2.17;;;;;;;-144.47;96.08;53223.56;5031669;28;20047;-70
2023/03/12 04:06:17;;;;;;;3.60;1.67;;;;;;;-144.47;96.35;53247.38;5030278;28;20419;-70
2023/03/12 04:08:42;;;;;;;3.70;1.58;;;;;;;-144.47;96.32;53233.47;5032212;28;20029;-67
2023/03/12 04:11:14;;;;;;;4.97;1.90;;;;;;;-144.47;96.40;53229.50;5031905;28;20036;-70
2023/03/12 04:13:40;;;;;;;7.88;1.90;;;;;;;-144.47;97.08;53259.31;5029704;28;20102;-68
2023/03/12 04:16:06;;;;;;;3.00;1.75;;;;;;;-144.47;97.02;53237.44;5028883;28;20025;-69
2023/03/12 04:18:31;;;;;;;4.93;2.30;;;;;;;-144.47;97.41;53241.44;5028776;28;20029;-71
2023/03/12 04:20:57;;;;;;;8.13;1.95;;;;;;;-144.47;97.46;53227.53;5029207;28;20025;-69
2023/03/12 04:23:25;;;;;;;6.55;2.50;;;;;;;-144.47;97.56;53197.72;5029146;28;20126;-69
2023/03/12 04:25:50;;;;;;;4.95;1.63;;;;;;;-144.47;97.55;53229.50;5029387;28;20027;-69
2023/03/12 04:28:16;;;;;;;7.97;2.00;;;;;;;-144.47;97.38;53171.91;5029409;28;20077;-67
2023/03/12 04:30:41;;;;;;;4.28;2.20;;;;;;;-144.47;97.44;53183.81;5030966;28;20092;-70
2023/03/12 04:33:07;;;;;;;3.88;1.98;;;;;;;-144.47;97.82;53231.50;5032479;28;20025;-68
2023/03/12 04:35:32;;;;;;;5.78;2.17;;;;;;;-144.47;97.24;53221.56;5040930;28;20463;-68
2023/03/12 04:38:00;;;;;;;4.07;1.75;;;;;;;-144.47;97.24;53225.53;5029115;28;20029;-70
2023/03/12 04:40:26;;;;;;;6.63;2.40;;;;;;;-144.47;96.99;53225.53;5029120;28;20087;-68
2023/03/12 04:42:51;;;;;;;13.13;2.92;;;;;;;-144.47;97.06;53223.56;5029082;28;20029;-70
2023/03/12 04:45:16;;;;;;;5.00;1.80;;;;;;;-144.47;97.08;53219.56;5028994;28;20029;-68
2023/03/12 04:47:42;;;;;;;12.15;2.47;;;;;;;-144.47;96.95;53233.47;5028339;28;20025;-67
2023/03/12 04:50:08;;;;;;;4.28;2.20;;;;;;;-144.47;97.08;53241.44;5028908;28;20040;-70
2023/03/12 04:52:34;;;;;;;7.35;1.73;;;;;;;-144.47;97.26;53249.38;5028365;28;20018;-69
2023/03/12 04:54:59;;;;;;;3.10;1.20;;;;;;;-144.47;97.14;53217.59;5037706;28;20028;-70
2023/03/12 04:57:25;;;;;;;3.22;1.65;;;;;;;-144.47;97.38;53213.63;5037146;28;20491;-69
2023/03/12 04:59:51;;;;;;;6.70;2.55;;;;;;;-144.47;97.06;53211.63;5029594;28;20081;-70
2023/03/12 05:02:16;;;;;;;5.32;2.13;;;;;;;-144.47;97.42;53223.56;5029822;28;20030;-68
2023/03/12 05:04:41;;;;;;;3.53;1.80;;;;;;;-144.47;98.33;53211.63;5028737;28;20021;-68
2023/03/12 05:07:07;;;;;;;6.68;1.45;;;;;;;-144.47;98.22;53263.28;5028377;28;20390;-69
2023/03/12 05:09:32;;;;;;;2.63;1.30;;;;;;;-144.47;98.53;53223.56;5030598;28;20661;-67
2023/03/12 05:11:57;;;;;;;4.00;1.65;;;;;;;-144.47;98.14;53247.38;5030817;28;20100;-70
2023/03/12 05:14:23;;;;;;;2.97;1.52;;;;;;;-144.47;98.09;53229.50;5030146;28;20018;-67
2023/03/12 05:16:48;;;;;;;4.60;1.70;;;;;;;-144.47;98.07;53239.44;5029551;28;20025;-70
2023/03/12 05:19:14;;;;;;;8.68;2.03;;;;;;;-144.47;98.37;53237.44;5029640;28;20105;-70
2023/03/12 05:21:41;;;;;;;12.23;2.28;;;;;;;-144.47;98.39;53253.34;5030605;28;20499;-70
2023/03/12 05:24:08;;;;;;;11.88;2.35;;;;;;;-144.47;98.52;53229.50;5033468;28;20021;-71
2023/03/12 05:26:34;;;;;;;9.98;1.58;;;;;;;-144.47;98.51;53187.78;5015991;28;20057;-69
2023/03/12 05:29:00;;;;;;;5.43;1.75;;;;;;;-144.47;99.13;53225.53;5029042;28;20048;-69
2023/03/12 05:31:26;;;;;;;4.72;1.80;;;;;;;-144.47;98.84;53225.53;5028267;28;20030;-70
2023/03/12 05:33:52;;;;;;;9.82;2.45;;;;;;;-144.47;99.24;53225.53;5036306;28;20092;-68
2023/03/12 05:36:18;;;;;;;7.80;2.47;;;;;;;-144.47;99.36;53231.50;5034064;28;20026;-69
2023/03/12 05:38:44;;;;;;;7.35;2.25;;;;;;;-144.47;99.33;53227.53;5028640;28;20094;-69
2023/03/12 05:41:18;;;;;;;6.95;3.03;;;;;;;-144.47;99.80;53245.41;5031314;28;20029;-66
2023/03/12 05:43:44;;;;;;;10.43;3.10;;;;;;;-144.47;100.00;53245.41;5032528;28;20079;-69
2023/03/12 05:46:09;;;;;;;9.48;3.88;;;;;;;-144.47;100.00;53209.66;5031941;28;20033;-68
2023/03/12 05:48:35;;;;;;;9.27;2.78;;;;;;;-144.47;100.00;53197.72;5032313;28;20478;-69
2023/03/12 05:51:00;;;;;;;6.70;2.70;;;;;;;-144.47;100.00;53279.16;5026887;28;20033;-70
2023/03/12 05:53:26;;;;;;;12.05;3.17;;;;;;;-144.47;100.00;53231.50;5031672;28;20407;-69
2023/03/12 05:55:51;;;;;;;7.03;2.70;;;;;;;-144.47;100.00;53215.59;5031576;28;20055;-70
2023/03/12 05:58:17;;;;;;;5.45;2.47;;;;;;;-144.47;100.00;53229.50;5031471;28;20053;-69
2023/03/12 06:00:43;;;;;;;14.43;2.97;;;;;;;-144.47;100.00;53215.59;5013888;28;20033;-67
2023/03/12 06:03:10;;;;;;;9.60;3.67;;;;;;;-144.47;100.00;53213.63;5013016;28;20040;-70
2023/03/12 06:05:36;;;;;;;9.18;2.65;;;;;;;-144.47;100.00;53229.50;5030826;28;20033;-68
2023/03/12 06:08:02;;;;;;;14.48;2.85;;;;;;;-144.47;100.00;53257.31;5032874;28;20436;-70
2023/03/12 06:10:27;;;;;;;10.77;2.25;;;;;;;-144.47;100.00;53249.38;5031419;28;20109;-70
2023/03/12 06:12:53;;;;;;;19.98;2.40;;;;;;;-144.47;100.00;53223.56;5031473;28;20526;-68
2023/03/12 06:15:18;;;;;;;5.60;2.15;;;;;;;-144.47;100.00;53239.44;5031740;28;20040;-69
2023/03/12 06:17:44;;;;;;;4.50;2.17;;;;;;;-144.47;100.00;53199.72;5030561;28;20036;-70
2023/03/12 06:20:10;;;;;;;6.40;2.92;;;;;;;-144.47;100.00;53237.44;5031894;28;20580;-70
2023/03/12 06:22:36;;;;;;;5.32;2.13;;;;;;;-144.47;99.63;53209.66;5032727;28;20586;-69
2023/03/12 06:25:02;;;;;;;9.00;2.88;;;;;;;-144.47;99.17;53187.78;5033971;28;20037;-69
2023/03/12 06:27:27;;;;;;;2.85;1.70;;;;;;;-144.47;98.54;53215.59;5035461;28;20041;-70
2023/03/12 06:29:52;;;;;;;5.47;1.83;;;;;;;-144.47;98.01;53197.72;5033076;28;20035;-68
2023/03/12 06:32:18;;;;;;;4.47;2.08;;;;;;;-144.47;97.27;53163.97;5032367;28;20430;-69
2023/03/12 06:34:43;;;;;;;10.07;3.03;;;;;;;-144.47;95.80;53221.56;5040901;28;20037;-68
2023/03/12 06:37:10;;;;;;;5.82;2.30;;;;;;;-144.47;94.20;53177.88;5038025;28;20090;-68
2023/03/12 06:39:37;;;;;;;7.63;2.45;;;;;;;-144.47;93.58;53193.75;5033448;28;20104;-71
2023/03/12 06:42:02;;;;;;;4.53;1.90;;;;;;;-144.47;92.45;53181.84;5030399;28;20083;-69
2023/03/12 06:44:27;;;;;;;6.50;1.85;;;;;;;-144.47;91.59;53142.09;5030871;28;20021;-70
2023/03/12 06:46:53;;;;;;;4.47;2.35;;;;;;;-144.47;93.46;53163.97;5029944;28;20029;-68
2023/03/12 06:49:18;;;;;;;3.88;1.90;;;;;;;-144.47;96.29;53160.00;5030525;28;20491;-68
2023/03/12 06:51:43;;;;;;;6.88;1.85;;;;;;;-144.47;92.05;53161.97;5023993;28;20088;-67
2023/03/12 06:54:09;;;;;;;5.63;2.10;;;;;;;-144.47;88.41;53114.31;5016490;28;20025;-70
2023/03/12 06:56:34;;;;;;;6.70;2.08;;;;;;;-144.47;84.23;53144.09;5030460;28;20055;-69
2023/03/12 06:59:00;;;;;;;8.73;1.63;;;;;;;-144.47;83.59;53163.97;5030527;28;20057;-71
2023/03/12 07:01:25;;;;;;;3.95;1.67;;;;;;;-144.47;83.19;53146.09;5029447;28;20036;-68
2023/03/12 07:03:50;;;;;;;10.73;2.70;;;;;;;-144.47;83.30;53140.13;5030482;28;20017;-69
2023/03/12 07:06:21;;;;;;;5.63;1.80;;;;;;;-144.47;83.13;53122.25;5030490;28;20395;-69
2023/03/12 07:08:47;;;;;;;8.93;2.42;;;;;;;-144.47;83.04;53138.13;5014602;28;20025;-72
2023/03/12 07:11:14;;;;;;;3.08;1.60;;;;;;;-144.47;82.80;53138.13;5029583;28;20051;-69
2023/03/12 07:13:40;;;;;;;3.95;1.95;;;;;;;-144.47;82.36;53128.22;5028565;28;20029;-70
2023/03/12 07:16:06;;;;;;;3.70;1.85;;;;;;;-144.47;82.11;53114.31;5030387;28;20037;-68
2023/03/12 07:18:32;;;;;;;4.57;1.45;;;;;;;-144.47;82.00;53138.13;5029835;28;20044;-67
2023/03/12 07:20:57;;;;;;;9.40;2.00;;;;;;;-144.47;82.20;53142.09;5020160;28;20029;-68
2023/03/12 07:23:23;;;;;;;13.07;2.67;;;;;;;-144.47;81.92;53120.25;5024563;28;20021;-68
2023/03/12 07:25:49;;;;;;;6.43;1.42;;;;;;;-144.47;81.90;53140.13;5019050;28;20019;-70
2023/03/12 07:28:15;;;;;;;8.35;1.50;;;;;;;-144.47;80.39;53102.38;5028304;28;20021;-69
2023/03/12 07:30:49;;;;;;;5.30;2.28;;;;;;;-144.47;80.38;53094.44;5031959;28;20041;-69
2023/03/12 07:33:16;;;;;;;9.48;3.15;;;;;;;-144.47;80.48;53092.44;5023750;28;20399;-70
2023/03/12 07:35:41;;;;;;;6.90;2.28;;;;;;;-144.47;79.43;53122.25;5028650;28;20086;-69
2023/03/12 07:38:07;;;;;;;6.65;2.70;;;;;;;-144.47;79.22;53112.31;5027387;28;20465;-71
2023/03/12 07:40:34;;;;;;;8.77;1.80;;;;;;;-144.47;78.05;53088.47;5028154;28;20289;-68
2023/03/12 07:42:59;;;;;;;4.22;1.95;;;;;;;-144.47;78.17;53102.38;5011231;28;20151;-72
2023/03/12 07:45:25;;;;;;;5.00;2.30;;;;;;;-144.47;77.14;53084.50;5024267;28;20017;-69
2023/03/12 07:47:51;;;;;;;8.70;1.90;;;;;;;-144.47;76.00;53080.53;5030438;28;20036;-71
2023/03/12 07:50:17;;;;;;;5.88;2.13;;;;;;;-144.47;74.57;53072.59;5035823;28;20025;-71
2023/03/12 07:52:44;;;;;;;5.50;1.80;;;;;;;-144.47;75.00;53082.53;5037712;28;20053;-71
2023/03/12 07:55:23;;;;;;;5.03;2.20;;;;;;;-144.47;74.51;53106.34;5032707;28;20033;-72
2023/03/12 07:57:49;;;;;;;10.93;2.20;;;;;;;-144.47;73.89;53074.56;5030589;28;20143;-71
2023/03/12 08:00:15;;;;;;;3.30;1.25;;;;;;;-144.47;73.18;53094.44;5025920;28;20020;-70
2023/03/12 08:02:41;;;;;;;3.35;1.38;;;;;;;-144.47;73.17;53096.41;5035435;28;20430;-72
2023/03/12 08:05:07;;;;;;;4.55;1.55;;;;;;;-144.47;72.18;53066.63;5039696;28;20021;-69
2023/03/12 08:07:34;;;;;;;5.57;2.00;;;;;;;-144.47;71.83;53096.41;5038613;28;20033;-69
2023/03/12 08:10:00;;;;;;;9.13;1.92;;;;;;;-144.47;71.98;53070.59;5032413;28;20468;-72
2023/03/12 08:12:26;;;;;;;7.10;2.33;;;;;;;-144.47;71.45;53060.66;5033149;28;20029;-71
2023/03/12 08:14:51;;;;;;;2.83;1.45;;;;;;;-144.47;71.26;53056.69;5027359;28;20050;-71
2023/03/12 08:17:17;;;;;;;6.68;1.73;;;;;;;-144.47;70.42;53038.81;5010590;28;20115;-68
2023/03/12 08:19:42;;;;;;;3.80;1.50;;;;;;;-144.47;68.86;53050.75;5027578;28;20033;-70
2023/03/12 08:22:08;;;;;;;6.80;1.48;;;;;;;-144.47;68.89;53050.75;5033305;28;20029;-71
2023/03/12 08:24:34;;;;;;;2.72;1.50;;;;;;;-144.47;68.57;53074.56;5040657;28;20009;-70
2023/03/12 08:26:59;;;;;;;4.88;1.27;;;;;;;-144.47;68.44;53056.69;5027745;28;20021;-72
2023/03/12 08:29:25;;;;;;;3.30;1.45;;;;;;;-144.47;67.53;53050.75;5029251;28;20108;-70
2023/03/12 08:31:51;;;;;;;9.82;1.77;;;;;;;-144.47;67.21;53036.84;5016122;28;20033;-69
2023/03/12 08:34:16;;;;;;;6.15;1.83;;;;;;;-144.47;67.20;53062.66;5032015;28;20486;-69
2023/03/12 08:36:42;;;;;;;7.65;1.83;;;;;;;-144.47;67.60;53026.91;5031543;28;20115;-69
2023/03/12 08:39:07;;;;;;;3.47;1.80;;;;;;;-144.47;67.48;53034.84;5028569;28;20488;-69
2023/03/12 08:41:35;;;;;;;7.45;2.17;;;;;;;-144.47;66.96;53007.03;5028494;28;20072;-68
2023/03/12 08:44:00;;;;;;;2.55;1.38;;;;;;;-144.47;66.52;53058.69;5024233;28;20474;-70
2023/03/12 08:46:26;;;;;;;7.93;1.55;;;;;;;-144.47;65.99;53064.66;5025208;28;20553;-70
2023/03/12 08:48:51;;;;;;;3.05;1.27;;;;;;;-144.47;64.56;53013.00;5024560;28;20557;-69
2023/03/12 08:51:17;;;;;;;4.15;1.42;;;;;;;-144.47;63.44;53018.97;5027862;28;20080;-70
2023/03/12 08:53:42;;;;;;;3.55;1.40;;;;;;;-144.47;63.46;53013.00;5023461;28;20125;-69
2023/03/12 08:56:08;;;;;;;6.30;1.67;;;;;;;-144.47;64.02;53042.78;5027255;28;20517;-69
2023/03/12 08:58:33;;;;;;;3.50;1.63;;;;;;;-144.47;63.45;53026.91;5025741;28;20144;-69
2023/03/12 09:00:58;;;;;;;7.82;1.77;;;;;;;-144.47;62.63;53022.94;5025873;28;20140;-69
2023/03/12 09:03:25;;;;;;;4.22;1.45;;;;;;;-144.47;62.83;52989.16;5023521;28;20057;-70
2023/03/12 09:06:00;;;;;;;3.20;1.60;;;;;;;-144.47;62.43;53030.88;5024341;28;20033;-70
2023/03/12 09:08:25;;;;;;;5.05;2.05;;;;;;;-144.47;61.14;53013.00;5023571;28;20044;-68
2023/03/12 09:10:51;;;;;;;3.83;1.63;;;;;;;-144.47;60.16;53016.97;5025640;28;20042;-70
2023/03/12 09:13:16;;;;;;;3.20;1.25;;;;;;;-144.47;59.50;52997.09;5026120;28;20026;-68
2023/03/12 09:15:45;;;;;;;5.00;1.45;;;;;;;-144.47;59.23;52975.25;5027378;28;20041;-69
2023/03/12 09:18:10;;;;;;;6.15;1.33;;;;;;;-144.47;59.29;52999.09;5025450;28;20522;-70
2023/03/12 09:20:35;;;;;;;3.25;1.17;;;;;;;-144.47;59.11;52983.22;5025923;28;20044;-69
2023/03/12 09:23:01;;;;;;;5.50;2.03;;;;;;;-144.47;58.55;52969.31;5025322;28;20033;-69
2023/03/12 09:25:26;;;;;;;4.28;1.40;;;;;;;-144.47;58.38;52969.31;5025200;28;20037;-69
2023/03/12 09:27:52;;;;;;;5.82;1.85;;;;;;;-144.47;58.81;52997.09;5011964;28;20110;-68
2023/03/12 09:30:19;;;;;;;7.68;1.65;;;;;;;-144.47;58.93;52973.28;5025741;28;20030;-70
2023/03/12 09:32:45;;;;;;;5.25;1.98;;;;;;;-144.47;58.85;52999.09;5025470;28;20047;-69
2023/03/12 09:35:13;;;;;;;4.45;1.17;;;;;;;-144.47;58.85;52957.38;5025582;28;20113;-70
2023/03/12 09:37:38;;;;;;;9.30;1.70;;;;;;;-144.47;58.84;52973.28;5031732;28;20111;-70
2023/03/12 09:40:08;;;;;;;4.50;1.60;;;;;;;-144.47;57.59;52983.22;5032065;28;20028;-68
2023/03/12 09:42:41;;;;;;;6.28;1.77;;;;;;;-144.47;56.96;52971.28;5029822;28;20025;-69
2023/03/12 09:45:14;;;;;;;7.07;1.88;;;;;;;-144.47;56.01;52971.28;5032282;28;20021;-69
2023/03/12 09:47:47;;;;;;;4.25;1.58;;;;;;;-144.47;55.17;52977.25;5024175;28;20022;-68
2023/03/12 09:50:22;;;;;;;4.68;1.85;;;;;;;-144.47;54.81;52959.38;5024488;28;20062;-68
2023/03/12 09:53:10;;;;;;;6.75;2.17;;;;;;;-144.47;55.11;52973.28;5023145;28;20045;-69
2023/03/12 09:55:38;;;;;;;12.38;2.58;;;;;;;-144.47;54.68;52957.38;5010061;28;20044;-70
2023/03/12 09:58:24;;;;;;;9.20;2.20;;;;;;;-144.47;54.25;52955.41;5028441;28;20120;-67
2023/03/12 10:01:00;;;;;;;7.65;1.80;;;;;;;-144.47;53.30;52965.34;5026684;28;21244;-72
2023/03/12 10:03:42;;;;;;;3.33;1.60;;;;;;;-144.47;51.61;52975.25;5025406;28;20640;-69
2023/03/12 10:06:56;;;;;;;6.10;2.42;;;;;;;-144.47;51.76;52947.47;5023415;28;20037;-68
2023/03/12 10:09:31;;;;;;;4.80;1.65;;;;;;;-144.47;51.97;52967.31;5000411;28;20096;-71
2023/03/12 10:11:56;;;;;;;16.30;2.42;;;;;;;-144.47;51.46;52921.63;5027062;28;20474;-71
2023/03/12 10:14:46;;;;;;;5.32;2.05;;;;;;;-144.47;51.37;52951.44;5026095;28;20022;-70
2023/03/12 10:17:21;;;;;;;5.05;1.90;;;;;;;-144.47;51.32;52949.44;5007425;28;20042;-69
2023/03/12 10:19:46;;;;;;;6.28;2.85;;;;;;;-144.47;52.38;52969.31;5023221;28;20120;-70
2023/03/12 10:22:50;;;;;;;5.95;2.00;;;;;;;-144.47;51.47;52917.66;5024931;28;20032;-68
2023/03/12 10:25:26;;;;;;;12.88;2.20;;;;;;;-144.47;52.28;52929.59;5023277;28;20745;-68
2023/03/12 10:27:54;;;;;;;8.27;2.35;;;;;;;-144.47;52.34;52947.47;5031469;28;20033;-69
2023/03/12 10:30:23;;;;;;;9.13;2.63;;;;;;;-144.47;52.44;52951.44;5028724;28;20028;-70
2023/03/12 10:32:55;;;;;;;11.68;2.42;;;;;;;-144.47;52.54;52941.50;5007573;28;20081;-68
2023/03/12 10:35:25;;;;;;;5.85;2.38;;;;;;;-144.47;53.41;52947.47;5029637;28;20033;-70
2023/03/12 10:37:57;;;;;;;5.40;2.05;;;;;;;-144.47;52.65;52947.47;5029250;28;20033;-69
2023/03/12 10:40:29;;;;;;;7.15;2.20;;;;;;;-144.47;51.66;52961.34;5029017;28;20647;-69
2023/03/12 10:42:54;;;;;;;9.35;2.95;;;;;;;-144.47;51.56;52959.38;5006469;28;20030;-79
2023/03/12 10:45:49;;;;;;;8.05;2.30;;;;;;;-144.47;51.65;52939.50;5028401;28;20380;-72
2023/03/12 10:48:21;;;;;;;14.85;2.67;;;;;;;-144.47;51.41;52917.66;4989419;28;20124;-69
2023/03/12 10:51:09;;;;;;;10.63;3.05;;;;;;;-144.47;51.27;52945.47;5029482;28;20188;-72
2023/03/12 10:53:46;;;;;;;11.23;2.63;;;;;;;-144.47;51.25;52949.44;5026994;28;20044;-74
2023/03/12 10:56:17;;;;;;;6.72;2.80;;;;;;;-144.47;51.10;52923.63;5026432;28;20526;-70
2023/03/12 10:58:49;;;;;;;7.85;3.22;;;;;;;-144.47;50.86;52907.72;5011845;28;20029;-71
2023/03/12 11:01:14;;;;;;;12.02;2.67;;;;;;;-144.47;50.67;52925.59;5030305;28;20029;-69
2023/03/12 11:03:40;;;;;;;5.43;2.67;;;;;;;-144.47;51.14;52955.41;5029926;28;20040;-67
2023/03/12 11:06:07;;;;;;;12.02;3.45;;;;;;;-144.47;50.55;52933.56;5030349;28;20033;-72
2023/03/12 11:08:36;;;;;;;5.43;2.53;;;;;;;-144.47;50.25;52943.47;5025024;28;20152;-66
2023/03/12 11:11:03;;;;;;;4.68;2.50;;;;;;;-144.47;51.17;52941.50;5031861;28;20041;-68
2023/03/12 11:13:28;;;;;;;5.22;2.75;;;;;;;-144.47;50.99;52935.53;5026884;28;20128;-67
2023/03/12 11:15:59;;;;;;;8.15;2.83;;;;;;;-144.47;50.65;52919.66;5029214;28;20440;-68
2023/03/12 11:18:31;;;;;;;12.07;3.20;;;;;;;-144.47;50.86;52927.59;5028773;28;20037;-70
2023/03/12 11:21:08;;;;;;;8.10;2.88;;;;;;;-144.47;50.28;52945.47;5025887;28;20033;-69